Time;durP1;ratioP1;P1;durP2;ratioP2;P2;SDS_P1;SDS_P2;PMS_P1;PMS_P2;Temp;Humidity;BMP_temperature;BMP_pressure;BME280_temperature;BME280_humidity;BME280_pressure;Samples;Min_cycle;Max_cycle;Signal;HPM_P1;HPM_P2
2022/11/09 00:00:00;;;;;;;5.90;2.60;;;;;;;;;;1047546;28;20015;-79
2022/11/09 00:00:31;;;;;;;6.82;2.85;;;;;;;;;;1047482;28;20521;-80
2022/11/09 00:01:02;;;;;;;6.60;2.72;;;;;;;;;;1049474;28;20120;-80
2022/11/09 00:01:33;;;;;;;5.10;2.38;;;;;;;;;;1047177;28;20024;-81
2022/11/09 00:02:04;;;;;;;5.60;2.80;;;;;;;;;;1048259;28;20167;-80
2022/11/09 00:02:35;;;;;;;9.15;3.40;;;;;;;;;;1051547;28;20058;-80
2022/11/09 00:03:06;;;;;;;5.05;2.40;;;;;;;;;;1051440;28;20020;-79
2022/11/09 00:03:37;;;;;;;5.35;2.40;;;;;;;;;;1051433;28;20724;-80
2022/11/09 00:04:09;;;;;;;7.10;3.05;;;;;;;;;;1048112;28;20497;-80
2022/11/09 00:04:40;;;;;;;4.95;2.22;;;;;;;;;;1050998;28;20063;-80
2022/11/09 00:05:11;;;;;;;11.07;3.22;;;;;;;;;;1051679;28;20030;-79
2022/11/09 00:05:42;;;;;;;5.07;3.15;;;;;;;;;;1047494;28;20035;-81
2022/11/09 00:06:13;;;;;;;4.43;2.00;;;;;;;;;;1047143;28;20058;-79
2022/11/09 00:06:44;;;;;;;4.05;2.40;;;;;;;;;;1043163;28;20021;-79
2022/11/09 00:07:15;;;;;;;9.45;3.00;;;;;;;;;;1047539;28;20016;-80
2022/11/09 00:07:46;;;;;;;3.88;2.35;;;;;;;;;;1047431;28;20593;-79
2022/11/09 00:08:17;;;;;;;5.25;2.70;;;;;;;;;;1051596;28;20032;-79
2022/11/09 00:08:48;;;;;;;4.88;2.33;;;;;;;;;;1051268;28;20028;-79
2022/11/09 00:09:19;;;;;;;5.95;2.60;;;;;;;;;;1051078;28;20020;-79
2022/11/09 00:09:50;;;;;;;7.20;2.47;;;;;;;;;;1047638;28;20714;-80
2022/11/09 00:10:21;;;;;;;3.10;2.08;;;;;;;;;;1047835;28;20138;-79
2022/11/09 00:10:52;;;;;;;6.72;2.20;;;;;;;;;;1047504;28;20225;-80
2022/11/09 00:11:23;;;;;;;4.38;2.15;;;;;;;;;;1047278;28;20020;-81
2022/11/09 00:11:54;;;;;;;4.57;2.30;;;;;;;;;;1046896;28;20074;-81
2022/11/09 00:12:25;;;;;;;5.45;2.03;;;;;;;;;;1043174;28;20113;-80
2022/11/09 00:12:57;;;;;;;6.50;2.33;;;;;;;;;;1043463;28;20062;-80
2022/11/09 00:13:28;;;;;;;4.25;1.77;;;;;;;;;;1043238;28;20024;-81
2022/11/09 00:13:59;;;;;;;3.58;2.33;;;;;;;;;;1043477;28;20152;-80
2022/11/09 00:14:30;;;;;;;6.35;2.03;;;;;;;;;;1047339;28;20047;-81
2022/11/09 00:15:01;;;;;;;5.75;2.35;;;;;;;;;;1047073;28;20463;-81
2022/11/09 00:15:32;;;;;;;3.53;1.80;;;;;;;;;;1043880;28;20025;-80
2022/11/09 00:16:04;;;;;;;5.07;2.08;;;;;;;;;;1047693;28;20094;-81
2022/11/09 00:16:35;;;;;;;4.20;2.20;;;;;;;;;;1051393;28;20017;-80
2022/11/09 00:17:08;;;;;;;5.10;2.30;;;;;;;;;;1047471;28;20020;-81
2022/11/09 00:17:39;;;;;;;3.28;1.80;;;;;;;;;;1051382;28;20061;-81
2022/11/09 00:18:10;;;;;;;4.25;1.95;;;;;;;;;;1051598;28;20016;-80
2022/11/09 00:18:46;;;;;;;5.32;1.80;;;;;;;;;;1051230;28;20035;-80
2022/11/09 00:19:17;;;;;;;3.45;1.60;;;;;;;;;;1046239;28;20147;-81
2022/11/09 00:19:48;;;;;;;6.22;2.22;;;;;;;;;;1044036;28;20041;-80
2022/11/09 00:20:19;;;;;;;5.43;2.15;;;;;;;;;;1047714;28;20138;-80
2022/11/09 00:20:50;;;;;;;3.58;1.70;;;;;;;;;;1044117;28;20447;-80
2022/11/09 00:21:21;;;;;;;4.55;1.90;;;;;;;;;;1043097;28;20021;-81
2022/11/09 00:21:52;;;;;;;6.30;1.63;;;;;;;;;;1042853;28;20048;-81
2022/11/09 00:22:23;;;;;;;3.58;1.88;;;;;;;;;;1043312;28;20076;-80
2022/11/09 00:22:54;;;;;;;4.32;1.88;;;;;;;;;;1048098;28;20032;-80
2022/11/09 00:23:25;;;;;;;4.53;1.75;;;;;;;;;;1051589;28;20053;-79
2022/11/09 00:23:56;;;;;;;3.47;1.67;;;;;;;;;;1055961;28;20023;-78
2022/11/09 00:24:27;;;;;;;4.10;1.67;;;;;;;;;;1055902;28;20462;-79
2022/11/09 00:24:58;;;;;;;3.60;1.58;;;;;;;;;;1047930;28;20115;-78
2022/11/09 00:25:30;;;;;;;4.40;2.10;;;;;;;;;;1044465;28;20053;-80
2022/11/09 00:26:01;;;;;;;7.35;2.75;;;;;;;;;;1043345;28;20029;-80
2022/11/09 00:26:32;;;;;;;4.43;1.40;;;;;;;;;;1043183;28;20028;-79
2022/11/09 00:27:03;;;;;;;3.53;1.27;;;;;;;;;;1047203;28;20092;-80
2022/11/09 00:27:34;;;;;;;8.40;2.17;;;;;;;;;;1044681;28;20511;-80
2022/11/09 00:28:05;;;;;;;3.17;1.52;;;;;;;;;;1042872;28;20025;-79
2022/11/09 00:28:36;;;;;;;2.67;1.77;;;;;;;;;;1041195;28;20020;-80
2022/11/09 00:29:08;;;;;;;4.85;1.98;;;;;;;;;;1043340;28;20464;-80
2022/11/09 00:29:38;;;;;;;4.63;1.70;;;;;;;;;;1042795;28;20020;-79
2022/11/09 00:30:10;;;;;;;3.22;1.73;;;;;;;;;;1046830;28;20039;-80
2022/11/09 00:30:41;;;;;;;3.42;1.92;;;;;;;;;;1048366;28;20012;-79
2022/11/09 00:31:14;;;;;;;2.38;1.50;;;;;;;;;;1051535;28;20036;-79
2022/11/09 00:31:45;;;;;;;4.35;1.88;;;;;;;;;;1040808;28;20068;-77
2022/11/09 00:32:16;;;;;;;5.88;2.13;;;;;;;;;;1035304;28;20523;-79
2022/11/09 00:32:47;;;;;;;4.13;1.48;;;;;;;;;;1039036;28;20096;-78
2022/11/09 00:33:18;;;;;;;3.05;1.15;;;;;;;;;;1037779;28;20041;-80
2022/11/09 00:33:50;;;;;;;4.30;1.60;;;;;;;;;;1043360;28;20131;-79
2022/11/09 00:34:21;;;;;;;4.57;1.95;;;;;;;;;;1047061;28;20024;-78
2022/11/09 00:34:51;;;;;;;4.10;1.98;;;;;;;;;;1046905;28;20021;-79
2022/11/09 00:35:22;;;;;;;4.13;1.73;;;;;;;;;;1043400;28;20039;-79
2022/11/09 00:35:54;;;;;;;4.07;1.70;;;;;;;;;;1047866;28;20103;-80
2022/11/09 00:36:26;;;;;;;4.22;1.70;;;;;;;;;;1047176;28;20550;-79
2022/11/09 00:36:57;;;;;;;4.70;1.90;;;;;;;;;;1047670;28;20128;-78
2022/11/09 00:37:31;;;;;;;5.05;2.50;;;;;;;;;;1046985;28;20020;-78
2022/11/09 00:38:02;;;;;;;3.65;1.55;;;;;;;;;;1047158;28;20062;-80
2022/11/09 00:38:34;;;;;;;5.13;2.17;;;;;;;;;;1043718;28;20084;-80
2022/11/09 00:39:05;;;;;;;8.23;2.40;;;;;;;;;;1039415;28;20424;-79
2022/11/09 00:39:36;;;;;;;3.47;1.92;;;;;;;;;;1039177;28;20388;-78
2022/11/09 00:40:07;;;;;;;3.92;1.52;;;;;;;;;;1043306;28;20017;-80
2022/11/09 00:40:38;;;;;;;3.63;1.33;;;;;;;;;;1043228;28;20499;-79
2022/11/09 00:41:10;;;;;;;5.07;2.20;;;;;;;;;;1044089;28;20636;-80
2022/11/09 00:41:41;;;;;;;4.70;1.73;;;;;;;;;;1042727;28;20028;-79
2022/11/09 00:42:12;;;;;;;2.25;1.45;;;;;;;;;;1043516;28;20024;-81
2022/11/09 00:42:43;;;;;;;4.82;1.70;;;;;;;;;;1046455;28;20032;-78
2022/11/09 00:43:15;;;;;;;3.30;1.80;;;;;;;;;;1043175;28;20017;-78
2022/11/09 00:43:46;;;;;;;4.15;1.95;;;;;;;;;;1044010;28;20017;-79
2022/11/09 00:44:17;;;;;;;2.17;1.42;;;;;;;;;;1043313;28;20017;-80
2022/11/09 00:44:48;;;;;;;4.47;2.03;;;;;;;;;;1043036;28;20036;-79
2022/11/09 00:45:19;;;;;;;5.45;2.03;;;;;;;;;;1038614;28;20084;-80
2022/11/09 00:45:50;;;;;;;5.78;2.50;;;;;;;;;;1042972;28;20622;-79
2022/11/09 00:46:21;;;;;;;5.00;2.33;;;;;;;;;;1044214;28;20102;-79
2022/11/09 00:46:55;;;;;;;5.40;2.03;;;;;;;;;;1041717;28;20017;-80
2022/11/09 00:47:26;;;;;;;3.97;1.52;;;;;;;;;;1039444;28;20452;-79
2022/11/09 00:47:57;;;;;;;2.40;1.42;;;;;;;;;;1039296;28;20025;-79
2022/11/09 00:48:28;;;;;;;5.35;2.20;;;;;;;;;;1034219;28;20026;-77
2022/11/09 00:48:59;;;;;;;4.30;1.73;;;;;;;;;;1044154;28;20418;-79
2022/11/09 00:49:30;;;;;;;2.15;1.58;;;;;;;;;;1043189;28;20056;-79
2022/11/09 00:50:01;;;;;;;8.52;1.85;;;;;;;;;;1047367;28;20020;-81
2022/11/09 00:50:32;;;;;;;4.82;1.95;;;;;;;;;;1047245;28;20013;-79
2022/11/09 00:51:03;;;;;;;3.65;1.52;;;;;;;;;;1043124;28;20017;-80
2022/11/09 00:51:34;;;;;;;2.28;1.50;;;;;;;;;;1043393;28;20013;-78
2022/11/09 00:52:05;;;;;;;3.70;1.65;;;;;;;;;;1043308;28;20024;-78
2022/11/09 00:52:37;;;;;;;10.63;1.98;;;;;;;;;;1047596;28;20055;-80
2022/11/09 00:53:08;;;;;;;7.53;2.22;;;;;;;;;;1051256;28;20034;-79
2022/11/09 00:53:39;;;;;;;2.90;1.58;;;;;;;;;;1051382;28;20043;-80
2022/11/09 00:54:10;;;;;;;5.15;1.70;;;;;;;;;;1051565;28;20672;-78
2022/11/09 00:54:41;;;;;;;3.45;1.63;;;;;;;;;;1051586;28;20694;-80
2022/11/09 00:55:12;;;;;;;6.85;2.40;;;;;;;;;;1051116;28;20531;-78
2022/11/09 00:55:52;;;;;;;2.88;1.48;;;;;;;;;;1051381;28;20020;-79
2022/11/09 00:56:23;;;;;;;9.10;2.05;;;;;;;;;;1047043;28;20025;-79
2022/11/09 00:56:54;;;;;;;4.05;1.70;;;;;;;;;;1047975;28;20059;-78
2022/11/09 00:57:25;;;;;;;6.90;1.63;;;;;;;;;;1046900;28;20044;-79
2022/11/09 00:57:56;;;;;;;5.80;1.70;;;;;;;;;;1043297;28;20045;-79
2022/11/09 00:58:28;;;;;;;5.57;1.95;;;;;;;;;;1046951;28;20020;-79
2022/11/09 00:58:59;;;;;;;3.58;1.85;;;;;;;;;;1042843;28;20041;-78
2022/11/09 00:59:30;;;;;;;5.03;2.13;;;;;;;;;;1046881;28;20013;-78
2022/11/09 01:00:01;;;;;;;6.75;1.63;;;;;;;;;;1051325;28;20074;-80
2022/11/09 01:00:32;;;;;;;10.30;1.70;;;;;;;;;;1051449;28;20008;-78
2022/11/09 01:01:16;;;;;;;4.78;1.60;;;;;;;;;;1050883;28;20578;-79
2022/11/09 01:01:47;;;;;;;3.63;1.90;;;;;;;;;;1047096;28;20016;-80
2022/11/09 01:02:18;;;;;;;11.43;2.53;;;;;;;;;;1047131;28;20025;-81
2022/11/09 01:02:49;;;;;;;6.00;1.45;;;;;;;;;;1048984;28;20020;-80
2022/11/09 01:03:21;;;;;;;5.20;2.05;;;;;;;;;;1050921;28;20467;-80
2022/11/09 01:03:52;;;;;;;3.83;1.40;;;;;;;;;;1047200;28;20017;-80
2022/11/09 01:04:23;;;;;;;5.18;1.52;;;;;;;;;;1046845;28;20091;-80
2022/11/09 01:04:54;;;;;;;4.53;2.15;;;;;;;;;;1039268;28;20025;-79
2022/11/09 01:05:25;;;;;;;3.85;1.40;;;;;;;;;;1039570;28;20112;-80
2022/11/09 01:05:58;;;;;;;4.93;1.85;;;;;;;;;;1042967;28;20100;-79
2022/11/09 01:06:29;;;;;;;2.20;1.40;;;;;;;;;;1047129;28;20013;-79
2022/11/09 01:07:00;;;;;;;2.50;1.58;;;;;;;;;;1043070;28;20583;-77
2022/11/09 01:07:31;;;;;;;3.45;1.40;;;;;;;;;;1042687;28;20530;-79
2022/11/09 01:08:02;;;;;;;3.70;1.45;;;;;;;;;;1042747;28;20017;-80
2022/11/09 01:08:34;;;;;;;11.50;2.30;;;;;;;;;;1043350;28;20034;-80
2022/11/09 01:09:05;;;;;;;4.05;1.45;;;;;;;;;;1046677;28;20366;-79
2022/11/09 01:09:36;;;;;;;5.75;1.95;;;;;;;;;;1046450;28;20228;-79
2022/11/09 01:10:08;;;;;;;4.00;1.85;;;;;;;;;;1051614;28;20017;-78
2022/11/09 01:10:40;;;;;;;6.60;1.77;;;;;;;;;;1051295;28;20066;-79
2022/11/09 01:11:11;;;;;;;3.92;1.40;;;;;;;;;;1046780;28;20013;-78
2022/11/09 01:11:42;;;;;;;3.22;1.33;;;;;;;;;;1047027;28;20044;-80
2022/11/09 01:12:13;;;;;;;5.80;1.75;;;;;;;;;;1047958;28;20091;-78
2022/11/09 01:12:44;;;;;;;3.85;1.58;;;;;;;;;;1051060;28;20015;-78
2022/11/09 01:13:16;;;;;;;4.95;1.60;;;;;;;;;;1051221;28;20016;-78
2022/11/09 01:13:47;;;;;;;3.92;1.58;;;;;;;;;;1046837;28;20430;-78
2022/11/09 01:14:18;;;;;;;3.72;2.33;;;;;;;;;;1047457;28;20348;-78
2022/11/09 01:14:49;;;;;;;8.38;2.10;;;;;;;;;;1047473;28;20012;-80
2022/11/09 01:15:20;;;;;;;6.22;2.03;;;;;;;;;;1047378;28;20704;-79
2022/11/09 01:15:52;;;;;;;5.38;1.85;;;;;;;;;;1047018;28;20013;-78
2022/11/09 01:16:23;;;;;;;5.50;1.42;;;;;;;;;;1046979;28;20096;-79
2022/11/09 01:16:54;;;;;;;6.00;1.98;;;;;;;;;;1047115;28;20036;-78
2022/11/09 01:17:25;;;;;;;5.85;1.77;;;;;;;;;;1047711;28;20027;-79
2022/11/09 01:17:56;;;;;;;5.18;2.33;;;;;;;;;;1051064;28;20533;-79
2022/11/09 01:18:27;;;;;;;3.50;1.65;;;;;;;;;;1046862;28;20019;-79
2022/11/09 01:18:58;;;;;;;6.97;2.22;;;;;;;;;;1042835;28;20071;-80
2022/11/09 01:19:29;;;;;;;3.45;1.35;;;;;;;;;;1044009;28;20028;-79
2022/11/09 01:20:00;;;;;;;7.38;1.60;;;;;;;;;;1043813;28;20017;-80
2022/11/09 01:20:31;;;;;;;3.97;2.03;;;;;;;;;;1047015;28;20386;-80
2022/11/09 01:21:03;;;;;;;3.83;1.83;;;;;;;;;;1038979;28;20460;-80
2022/11/09 01:21:34;;;;;;;2.90;1.30;;;;;;;;;;1038788;28;20010;-80
2022/11/09 01:22:05;;;;;;;4.30;1.75;;;;;;;;;;1039163;28;20022;-79
2022/11/09 01:22:36;;;;;;;4.10;1.90;;;;;;;;;;1040097;28;20108;-81
2022/11/09 01:23:07;;;;;;;3.50;1.35;;;;;;;;;;1043871;28;20575;-80
2022/11/09 01:23:39;;;;;;;4.70;1.83;;;;;;;;;;1047593;28;20021;-79
2022/11/09 01:24:10;;;;;;;3.60;2.20;;;;;;;;;;1051042;28;20097;-80
2022/11/09 01:24:41;;;;;;;5.05;2.13;;;;;;;;;;1051161;28;20035;-79
2022/11/09 01:25:14;;;;;;;4.15;1.95;;;;;;;;;;1049272;28;20027;-81
2022/11/09 01:25:45;;;;;;;6.43;2.15;;;;;;;;;;1047298;28;20027;-80
2022/11/09 01:26:16;;;;;;;6.03;1.88;;;;;;;;;;1042874;28;20024;-80
2022/11/09 01:26:47;;;;;;;2.50;1.55;;;;;;;;;;1050832;28;20012;-79
2022/11/09 01:27:18;;;;;;;3.53;1.83;;;;;;;;;;1046878;28;20036;-80
2022/11/09 01:27:49;;;;;;;6.93;1.92;;;;;;;;;;1047702;28;20026;-78
2022/11/09 01:28:19;;;;;;;4.50;1.90;;;;;;;;;;1048588;28;20124;-79
2022/11/09 01:28:51;;;;;;;5.53;2.53;;;;;;;;;;1047072;28;20360;-80
2022/11/09 01:29:22;;;;;;;3.97;1.55;;;;;;;;;;1047548;28;20032;-78
2022/11/09 01:29:52;;;;;;;8.77;2.15;;;;;;;;;;1045583;28;20024;-78
2022/11/09 01:30:25;;;;;;;4.15;1.60;;;;;;;;;;1047889;28;20429;-79
2022/11/09 01:31:00;;;;;;;6.78;2.10;;;;;;;;;;1047462;28;20115;-78
2022/11/09 01:31:31;;;;;;;4.60;1.77;;;;;;;;;;1043870;28;20025;-79
2022/11/09 01:32:02;;;;;;;4.15;1.77;;;;;;;;;;1046852;28;20028;-80
2022/11/09 01:32:33;;;;;;;5.35;1.95;;;;;;;;;;1043858;28;20079;-80
2022/11/09 01:33:08;;;;;;;3.97;1.77;;;;;;;;;;1043970;28;20051;-80
2022/11/09 01:33:39;;;;;;;3.72;1.70;;;;;;;;;;1043879;28;20025;-80
2022/11/09 01:34:10;;;;;;;5.47;2.30;;;;;;;;;;1047295;28;20016;-79
2022/11/09 01:34:41;;;;;;;3.33;1.58;;;;;;;;;;1051284;28;20032;-80
2022/11/09 01:35:12;;;;;;;4.07;1.60;;;;;;;;;;1046918;28;20024;-80
2022/11/09 01:35:43;;;;;;;7.97;2.47;;;;;;;;;;1048546;28;20025;-79
2022/11/09 01:36:16;;;;;;;9.20;2.30;;;;;;;;;;1046789;28;20471;-79
2022/11/09 01:36:50;;;;;;;5.20;2.20;;;;;;;;;;1047050;28;20107;-79
2022/11/09 01:37:21;;;;;;;7.50;2.25;;;;;;;;;;1047050;28;20024;-79
2022/11/09 01:37:52;;;;;;;4.50;2.35;;;;;;;;;;1047977;28;20052;-79
2022/11/09 01:38:23;;;;;;;4.93;2.75;;;;;;;;;;1046260;28;20618;-79
2022/11/09 01:38:54;;;;;;;5.85;2.00;;;;;;;;;;1043107;28;20032;-81
2022/11/09 01:39:25;;;;;;;5.57;2.38;;;;;;;;;;1047227;28;20237;-80
2022/11/09 01:39:57;;;;;;;5.22;2.83;;;;;;;;;;1046718;28;20127;-79
2022/11/09 01:40:28;;;;;;;7.00;2.90;;;;;;;;;;1047056;28;20029;-79
2022/11/09 01:40:59;;;;;;;10.45;2.67;;;;;;;;;;1048291;28;20028;-80
2022/11/09 01:41:30;;;;;;;5.60;2.45;;;;;;;;;;1047050;28;20024;-79
2022/11/09 01:42:01;;;;;;;8.48;3.42;;;;;;;;;;1050406;28;20020;-80
2022/11/09 01:42:35;;;;;;;6.78;3.47;;;;;;;;;;1046976;28;20123;-80
2022/11/09 01:43:17;;;;;;;9.00;3.45;;;;;;;;;;1046901;28;20035;-79
2022/11/09 01:44:04;;;;;;;9.88;3.35;;;;;;;;;;1043406;28;20033;-78
2022/11/09 01:44:37;;;;;;;5.95;3.42;;;;;;;;;;1043730;28;20059;-79
2022/11/09 01:45:17;;;;;;;7.07;3.50;;;;;;;;;;1042502;28;20025;-79
2022/11/09 01:46:01;;;;;;;7.40;2.97;;;;;;;;;;1047017;28;20041;-80
2022/11/09 01:46:40;;;;;;;8.43;3.20;;;;;;;;;;1046538;28;20215;-81
2022/11/09 01:47:20;;;;;;;4.95;2.88;;;;;;;;;;1046596;28;20033;-80
2022/11/09 01:47:58;;;;;;;6.30;3.20;;;;;;;;;;1042977;28;20438;-79
2022/11/09 01:48:35;;;;;;;6.82;2.90;;;;;;;;;;1046489;28;20527;-77
2022/11/09 01:49:11;;;;;;;7.88;3.60;;;;;;;;;;1050254;28;20024;-78
2022/11/09 01:49:47;;;;;;;6.40;3.00;;;;;;;;;;1051228;28;20067;-79
2022/11/09 01:50:27;;;;;;;8.52;3.40;;;;;;;;;;1045435;28;20036;-79
2022/11/09 01:50:58;;;;;;;5.75;2.85;;;;;;;;;;1045677;28;20091;-81
2022/11/09 01:51:34;;;;;;;6.35;2.28;;;;;;;;;;1042981;28;20044;-79
2022/11/09 01:52:08;;;;;;;7.85;2.88;;;;;;;;;;1042617;28;20032;-79
2022/11/09 01:52:42;;;;;;;5.38;2.42;;;;;;;;;;1046169;28;20051;-79
2022/11/09 01:53:16;;;;;;;4.85;2.58;;;;;;;;;;1044325;28;20060;-80
2022/11/09 01:53:48;;;;;;;4.30;1.83;;;;;;;;;;1049612;28;20475;-80
2022/11/09 01:54:29;;;;;;;5.05;2.40;;;;;;;;;;1051074;28;20029;-80
2022/11/09 01:55:01;;;;;;;6.07;1.90;;;;;;;;;;1053400;28;20461;-80
2022/11/09 01:55:32;;;;;;;5.93;1.92;;;;;;;;;;1049226;28;20661;-80
2022/11/09 01:56:06;;;;;;;6.82;1.83;;;;;;;;;;1046974;28;20418;-79
2022/11/09 01:56:37;;;;;;;4.72;1.52;;;;;;;;;;1047747;28;20641;-79
2022/11/09 01:57:11;;;;;;;3.65;1.67;;;;;;;;;;1048441;28;20106;-77
2022/11/09 01:57:45;;;;;;;6.80;2.25;;;;;;;;;;1051452;28;20085;-79
2022/11/09 01:58:20;;;;;;;6.75;2.53;;;;;;;;;;1046673;28;20149;-80
2022/11/09 01:58:57;;;;;;;6.07;2.25;;;;;;;;;;1044536;28;20040;-81
2022/11/09 01:59:30;;;;;;;3.95;1.80;;;;;;;;;;1047194;28;20028;-79
2022/11/09 02:00:06;;;;;;;3.85;1.40;;;;;;;;;;1042757;28;20040;-78
2022/11/09 02:00:37;;;;;;;4.53;2.08;;;;;;;;;;1044978;28;20120;-79
2022/11/09 02:01:10;;;;;;;3.83;2.13;;;;;;;;;;1046714;28;20107;-79
2022/11/09 02:01:42;;;;;;;3.90;2.35;;;;;;;;;;1049087;28;20422;-79
2022/11/09 02:02:13;;;;;;;4.75;1.70;;;;;;;;;;1046987;28;20028;-78
2022/11/09 02:02:46;;;;;;;5.88;2.40;;;;;;;;;;1047122;28;20028;-79
2022/11/09 02:03:43;;;;;;;3.38;1.40;;;;;;;;;;1042686;28;20383;-79
2022/11/09 02:04:23;;;;;;;6.03;2.13;;;;;;;;;;1046017;28;20040;-79
2022/11/09 02:04:56;;;;;;;3.58;1.60;;;;;;;;;;1051221;28;20262;-79
2022/11/09 02:05:29;;;;;;;4.60;2.10;;;;;;;;;;1046545;28;20426;-80
2022/11/09 02:06:01;;;;;;;4.88;1.83;;;;;;;;;;1044461;28;20040;-79
2022/11/09 02:06:32;;;;;;;4.00;1.63;;;;;;;;;;1039721;28;20029;-79
2022/11/09 02:07:04;;;;;;;8.48;2.25;;;;;;;;;;1043429;28;20033;-76
2022/11/09 02:07:36;;;;;;;4.90;2.03;;;;;;;;;;1042443;28;20129;-78
2022/11/09 02:08:08;;;;;;;4.72;1.83;;;;;;;;;;1041061;28;20093;-79
2022/11/09 02:08:40;;;;;;;4.22;1.55;;;;;;;;;;1042580;28;20524;-79
2022/11/09 02:09:15;;;;;;;4.40;1.95;;;;;;;;;;1042686;28;20029;-79
2022/11/09 02:09:54;;;;;;;3.70;1.75;;;;;;;;;;1047032;28;20017;-80
2022/11/09 02:10:34;;;;;;;4.68;1.80;;;;;;;;;;1047818;28;20052;-80
2022/11/09 02:11:19;;;;;;;3.08;1.60;;;;;;;;;;1046706;28;20090;-80
2022/11/09 02:11:51;;;;;;;3.85;1.52;;;;;;;;;;1046759;28;20049;-81
2022/11/09 02:12:23;;;;;;;5.97;2.28;;;;;;;;;;1051198;28;20035;-81
2022/11/09 02:12:56;;;;;;;4.45;1.67;;;;;;;;;;1046945;28;20021;-81
2022/11/09 02:13:28;;;;;;;6.50;1.90;;;;;;;;;;1047574;28;20513;-78
2022/11/09 02:14:00;;;;;;;3.45;1.50;;;;;;;;;;1046567;28;20028;-80
2022/11/09 02:14:32;;;;;;;3.33;1.48;;;;;;;;;;1048084;28;20785;-80
2022/11/09 02:15:05;;;;;;;5.22;1.52;;;;;;;;;;1047120;28;20068;-79
2022/11/09 02:15:36;;;;;;;3.90;1.98;;;;;;;;;;1047396;28;20073;-79
2022/11/09 02:16:08;;;;;;;3.35;1.58;;;;;;;;;;1047480;28;20013;-79
2022/11/09 02:16:40;;;;;;;4.60;1.60;;;;;;;;;;1052063;28;20443;-79
2022/11/09 02:17:11;;;;;;;4.68;1.50;;;;;;;;;;1052016;28;20260;-78
2022/11/09 02:17:43;;;;;;;2.90;1.20;;;;;;;;;;1051653;28;20020;-79
2022/11/09 02:18:14;;;;;;;3.97;1.13;;;;;;;;;;1043347;28;20018;-77
2022/11/09 02:18:49;;;;;;;3.10;1.50;;;;;;;;;;1046871;28;20186;-79
2022/11/09 02:19:20;;;;;;;2.90;1.55;;;;;;;;;;1047715;28;20048;-79
2022/11/09 02:19:51;;;;;;;3.90;1.70;;;;;;;;;;1044637;28;20021;-78
2022/11/09 02:20:23;;;;;;;2.42;1.70;;;;;;;;;;1043331;28;20044;-80
2022/11/09 02:20:56;;;;;;;3.50;1.55;;;;;;;;;;1043614;28;20021;-79
2022/11/09 02:21:28;;;;;;;4.88;1.60;;;;;;;;;;1040630;28;20022;-77
2022/11/09 02:21:59;;;;;;;5.15;2.05;;;;;;;;;;1048009;28;20028;-79
2022/11/09 02:22:31;;;;;;;6.10;1.45;;;;;;;;;;1043980;28;20017;-79
2022/11/09 02:23:02;;;;;;;5.15;1.42;;;;;;;;;;1044601;28;20171;-80
2022/11/09 02:23:33;;;;;;;4.15;1.80;;;;;;;;;;1051984;28;20084;-80
2022/11/09 02:24:04;;;;;;;7.10;1.83;;;;;;;;;;1047467;28;20025;-81
2022/11/09 02:24:35;;;;;;;4.00;1.45;;;;;;;;;;1044309;28;20216;-80
2022/11/09 02:25:07;;;;;;;4.05;1.20;;;;;;;;;;1044006;28;20031;-79
2022/11/09 02:25:38;;;;;;;6.65;1.95;;;;;;;;;;1043633;28;20013;-80
2022/11/09 02:26:13;;;;;;;9.02;2.28;;;;;;;;;;1039856;28;20020;-78
2022/11/09 02:26:47;;;;;;;3.65;1.60;;;;;;;;;;1037411;28;20053;-80
2022/11/09 02:27:18;;;;;;;4.65;1.77;;;;;;;;;;1043480;28;20108;-80
2022/11/09 02:27:49;;;;;;;4.78;1.48;;;;;;;;;;1043994;28;20487;-79
2022/11/09 02:28:21;;;;;;;7.03;2.30;;;;;;;;;;1042743;28;20183;-80
2022/11/09 02:28:54;;;;;;;3.53;1.48;;;;;;;;;;1043742;28;20060;-80
2022/11/09 02:29:28;;;;;;;4.22;1.60;;;;;;;;;;1041349;28;20112;-79
2022/11/09 02:30:00;;;;;;;2.88;1.50;;;;;;;;;;1048828;28;20028;-80
2022/11/09 02:30:32;;;;;;;3.75;2.00;;;;;;;;;;1048074;28;20203;-78
2022/11/09 02:31:04;;;;;;;5.10;2.25;;;;;;;;;;1048539;28;20155;-80
2022/11/09 02:31:38;;;;;;;4.72;2.10;;;;;;;;;;1051725;28;20032;-79
2022/11/09 02:32:14;;;;;;;3.63;1.77;;;;;;;;;;1048481;28;20507;-80
2022/11/09 02:32:45;;;;;;;4.78;2.25;;;;;;;;;;1052272;28;20012;-79
2022/11/09 02:33:16;;;;;;;5.40;2.10;;;;;;;;;;1046270;28;20050;-79
2022/11/09 02:33:50;;;;;;;4.70;2.38;;;;;;;;;;1048125;28;20021;-80
2022/11/09 02:34:21;;;;;;;3.90;1.85;;;;;;;;;;1051839;28;20031;-80
2022/11/09 02:34:52;;;;;;;4.55;2.22;;;;;;;;;;1048361;28;20119;-78
2022/11/09 02:35:23;;;;;;;4.47;2.22;;;;;;;;;;1047949;28;20024;-79
2022/11/09 02:35:54;;;;;;;5.57;2.20;;;;;;;;;;1047934;28;20095;-80
2022/11/09 02:36:25;;;;;;;7.00;2.67;;;;;;;;;;1043513;28;20870;-80
2022/11/09 02:36:56;;;;;;;5.38;2.22;;;;;;;;;;1047746;28;20024;-80
2022/11/09 02:37:30;;;;;;;5.35;2.40;;;;;;;;;;1051917;28;20020;-79
2022/11/09 02:38:01;;;;;;;2.42;1.52;;;;;;;;;;1047801;28;20028;-79
2022/11/09 02:38:32;;;;;;;2.92;1.95;;;;;;;;;;1047625;28;20021;-78
2022/11/09 02:39:03;;;;;;;9.18;2.60;;;;;;;;;;1047356;28;20753;-78
2022/11/09 02:39:34;;;;;;;5.82;2.78;;;;;;;;;;1043843;28;20032;-78
2022/11/09 02:40:13;;;;;;;2.42;1.63;;;;;;;;;;1040908;28;20024;-78
2022/11/09 02:40:46;;;;;;;3.72;1.83;;;;;;;;;;1045377;28;20021;-79
2022/11/09 02:41:17;;;;;;;5.55;1.77;;;;;;;;;;1047487;28;20067;-80
2022/11/09 02:41:56;;;;;;;3.58;1.80;;;;;;;;;;1045343;28;20028;-80
2022/11/09 02:42:28;;;;;;;7.55;2.58;;;;;;;;;;1043308;28;20499;-80
2022/11/09 02:43:00;;;;;;;5.22;1.98;;;;;;;;;;1045088;28;20059;-80
2022/11/09 02:43:31;;;;;;;3.10;1.63;;;;;;;;;;1049599;28;20095;-80
2022/11/09 02:44:02;;;;;;;5.32;2.10;;;;;;;;;;1048016;28;20024;-80
2022/11/09 02:44:39;;;;;;;8.07;2.05;;;;;;;;;;1051692;28;20027;-81
2022/11/09 02:45:10;;;;;;;4.53;2.30;;;;;;;;;;1051468;28;20046;-79
2022/11/09 02:45:41;;;;;;;6.38;1.60;;;;;;;;;;1051949;28;20058;-79
2022/11/09 02:46:12;;;;;;;3.50;1.17;;;;;;;;;;1047937;28;20029;-79
2022/11/09 02:46:43;;;;;;;6.50;1.90;;;;;;;;;;1047430;28;20017;-79
2022/11/09 02:47:14;;;;;;;9.45;2.30;;;;;;;;;;1047811;28;20013;-80
2022/11/09 02:47:45;;;;;;;3.72;1.80;;;;;;;;;;1043382;28;20029;-79
2022/11/09 02:48:16;;;;;;;3.83;1.77;;;;;;;;;;1039514;28;20057;-79
2022/11/09 02:48:47;;;;;;;2.80;1.20;;;;;;;;;;1043586;28;20013;-80
2022/11/09 02:49:18;;;;;;;4.18;1.80;;;;;;;;;;1039554;28;20018;-80
2022/11/09 02:49:49;;;;;;;4.00;1.52;;;;;;;;;;1043716;28;20013;-80
2022/11/09 02:50:20;;;;;;;5.10;2.10;;;;;;;;;;1043568;28;20055;-80
2022/11/09 02:50:51;;;;;;;3.63;1.92;;;;;;;;;;1047851;28;20020;-80
2022/11/09 02:51:22;;;;;;;7.18;2.17;;;;;;;;;;1048066;28;20012;-81
2022/11/09 02:51:53;;;;;;;5.40;2.28;;;;;;;;;;1047755;28;20711;-80
2022/11/09 02:52:24;;;;;;;4.25;1.33;;;;;;;;;;1051686;28;20039;-81
2022/11/09 02:52:55;;;;;;;4.00;1.58;;;;;;;;;;1051923;28;20027;-80
2022/11/09 02:53:26;;;;;;;3.72;1.60;;;;;;;;;;1052012;28;20024;-79
2022/11/09 02:53:57;;;;;;;5.00;1.83;;;;;;;;;;1043867;28;20013;-78
2022/11/09 02:54:29;;;;;;;2.85;1.60;;;;;;;;;;1043550;28;20495;-79
2022/11/09 02:55:00;;;;;;;3.53;1.55;;;;;;;;;;1039468;28;20033;-80
2022/11/09 02:55:31;;;;;;;3.58;1.40;;;;;;;;;;1046520;28;20017;-79
2022/11/09 02:56:02;;;;;;;4.97;1.77;;;;;;;;;;1047624;28;20126;-81
2022/11/09 02:56:33;;;;;;;6.32;2.03;;;;;;;;;;1044099;28;20028;-79
2022/11/09 02:57:07;;;;;;;3.38;1.48;;;;;;;;;;1047546;28;20107;-79
2022/11/09 02:57:38;;;;;;;5.47;1.77;;;;;;;;;;1048360;28;20561;-80
2022/11/09 02:58:09;;;;;;;4.25;1.52;;;;;;;;;;1051742;28;20020;-78
2022/11/09 02:58:40;;;;;;;3.85;1.65;;;;;;;;;;1050342;28;20090;-79
2022/11/09 02:59:11;;;;;;;3.80;1.50;;;;;;;;;;1051846;28;20019;-79
2022/11/09 02:59:41;;;;;;;4.20;1.45;;;;;;;;;;1052111;28;20103;-79
2022/11/09 03:00:13;;;;;;;3.05;1.50;;;;;;;;;;1047715;28;20020;-79
2022/11/09 03:00:44;;;;;;;4.32;1.65;;;;;;;;;;1051826;28;20016;-78
2022/11/09 03:01:15;;;;;;;6.00;1.98;;;;;;;;;;1051695;28;20039;-78
2022/11/09 03:01:46;;;;;;;5.35;1.92;;;;;;;;;;1048355;28;20111;-79
2022/11/09 03:02:17;;;;;;;6.13;1.40;;;;;;;;;;1051623;28;20243;-80
2022/11/09 03:02:48;;;;;;;3.85;1.70;;;;;;;;;;1047530;28;20431;-80
2022/11/09 03:03:19;;;;;;;3.10;1.38;;;;;;;;;;1047723;28;20017;-79
2022/11/09 03:03:50;;;;;;;4.93;1.58;;;;;;;;;;1047644;28;20020;-80
2022/11/09 03:04:20;;;;;;;2.58;1.27;;;;;;;;;;1047675;28;20491;-79
2022/11/09 03:04:51;;;;;;;2.75;1.40;;;;;;;;;;1047552;28;20075;-79
2022/11/09 03:05:22;;;;;;;4.05;1.65;;;;;;;;;;1047526;28;20040;-79
2022/11/09 03:05:56;;;;;;;7.10;1.77;;;;;;;;;;1043336;28;20013;-78
2022/11/09 03:06:33;;;;;;;4.97;1.40;;;;;;;;;;1043997;28;20475;-78
2022/11/09 03:07:04;;;;;;;4.15;1.77;;;;;;;;;;1043627;28;20020;-81
2022/11/09 03:07:35;;;;;;;4.38;1.50;;;;;;;;;;1048651;28;20103;-79
2022/11/09 03:08:07;;;;;;;4.93;2.05;;;;;;;;;;1047345;28;20020;-79
2022/11/09 03:08:38;;;;;;;4.03;1.50;;;;;;;;;;1047646;28;20074;-77
2022/11/09 03:09:10;;;;;;;3.47;1.90;;;;;;;;;;1044621;28;20102;-79
2022/11/09 03:09:41;;;;;;;4.65;1.52;;;;;;;;;;1039303;28;20021;-79
2022/11/09 03:10:12;;;;;;;11.32;1.83;;;;;;;;;;1039728;28;20118;-79
2022/11/09 03:10:43;;;;;;;5.68;2.15;;;;;;;;;;1045227;28;20025;-79
2022/11/09 03:11:13;;;;;;;5.85;1.98;;;;;;;;;;1047600;28;20108;-79
2022/11/09 03:11:45;;;;;;;4.65;1.67;;;;;;;;;;1047686;28;20533;-79
2022/11/09 03:12:28;;;;;;;4.90;1.90;;;;;;;;;;1047372;28;20461;-78